Time;durP1;ratioP1;P1;durP2;ratioP2;P2;SDS_P1;SDS_P2;PMS_P1;PMS_P2;Temp;Humidity;BMP_temperature;BMP_pressure;BME280_temperature;BME280_humidity;BME280_pressure;Samples;Min_cycle;Max_cycle;Signal;HPM_P1;HPM_P2
2022/08/12 00:43:28;;;;;;;1.53;1.43;;;17.00;88.20;;;;;;5050650;28;20515;-82
2022/08/12 00:48:39;;;;;;;1.20;1.20;;;16.90;88.30;;;;;;5050972;28;20421;-82
2022/08/12 00:51:07;;;;;;;1.43;1.33;;;16.90;88.30;;;;;;5049652;28;20421;-83
2022/08/12 00:53:33;;;;;;;2.43;1.77;;;16.90;88.40;;;;;;5036650;28;20815;-82
2022/08/12 00:56:00;;;;;;;1.63;1.53;;;16.80;89.10;;;;;;5049597;28;20496;-82
2022/08/12 00:58:30;;;;;;;1.67;1.60;;;16.80;88.90;;;;;;5049788;28;20832;-82
2022/08/12 01:01:00;;;;;;;1.77;1.67;;;16.80;89.00;;;;;;5052832;28;20421;-83
2022/08/12 01:11:27;;;;;;;1.77;1.67;;;16.70;89.00;;;;;;5053555;28;20468;-82
2022/08/12 01:11:47;;;;;;;2.83;1.83;;;16.70;89.50;;;;;;5045164;28;20455;-81
2022/08/12 01:14:12;;;;;;;1.43;1.33;;;16.60;89.70;;;;;;5035171;28;20418;-82
2022/08/12 01:16:38;;;;;;;1.57;1.47;;;16.60;89.90;;;;;;5036368;28;20423;-82
2022/08/12 01:19:04;;;;;;;1.80;1.70;;;16.50;90.00;;;;;;5031658;28;20192;-83
2022/08/12 01:21:48;;;;;;;2.00;1.70;;;16.50;89.90;;;;;;5016881;28;20951;-83
2022/08/12 01:24:42;;;;;;;3.13;1.47;;;16.40;90.20;;;;;;5048606;28;20422;-83
2022/08/12 01:27:10;;;;;;;1.90;1.87;;;16.30;90.20;;;;;;5029413;28;20514;-83
2022/08/12 01:29:42;;;;;;;1.30;1.30;;;16.30;90.70;;;;;;5025980;28;20426;-83
2022/08/12 01:32:13;;;;;;;1.90;1.80;;;16.20;90.80;;;;;;5022678;28;20846;-83
2022/08/12 01:34:45;;;;;;;1.40;1.30;;;16.20;91.00;;;;;;5036285;28;20423;-83
2022/08/12 01:37:12;;;;;;;1.73;1.40;;;16.20;91.00;;;;;;5017075;28;20423;-83
2022/08/12 01:39:51;;;;;;;2.80;2.60;;;16.20;90.90;;;;;;5034412;28;20794;-82
2022/08/12 01:42:20;;;;;;;1.73;1.63;;;16.20;90.80;;;;;;5040167;28;20857;-82
2022/08/12 01:44:48;;;;;;;2.00;1.90;;;16.10;91.40;;;;;;5021465;28;20415;-82
2022/08/12 01:47:53;;;;;;;1.80;1.70;;;16.10;91.60;;;;;;5034558;28;20962;-82
2022/08/12 01:50:43;;;;;;;3.23;1.70;;;16.10;91.60;;;;;;5020433;28;20434;-83
2022/08/12 01:53:11;;;;;;;1.50;1.40;;;16.00;91.60;;;;;;5032371;28;20414;-82
2022/08/12 01:55:39;;;;;;;2.73;1.73;;;16.00;91.60;;;;;;5025471;28;20502;-82
2022/08/12 01:58:23;;;;;;;1.83;1.80;;;16.00;91.60;;;;;;5028443;28;20415;-82
2022/08/12 02:00:57;;;;;;;2.07;1.60;;;15.90;92.10;;;;;;5029274;28;20509;-82
2022/08/12 02:12:28;;;;;;;2.00;1.53;;;15.70;92.10;;;;;;5050931;28;20453;-82
2022/08/12 02:15:02;;;;;;;1.40;1.30;;;15.70;92.30;;;;;;5025495;28;20714;-83
2022/08/12 02:17:48;;;;;;;1.63;1.53;;;15.70;92.20;;;;;;5026944;28;20819;-82
2022/08/12 02:20:37;;;;;;;1.60;1.50;;;15.70;92.20;;;;;;5016341;28;20892;-82
2022/08/12 02:23:06;;;;;;;3.23;2.60;;;15.70;92.20;;;;;;5005154;28;20467;-83
2022/08/12 02:25:36;;;;;;;2.27;1.70;;;15.70;92.40;;;;;;5045164;28;20422;-82
2022/08/12 02:28:03;;;;;;;1.57;1.50;;;15.60;92.90;;;;;;5025289;28;20419;-82
2022/08/12 02:30:31;;;;;;;1.43;1.33;;;15.60;92.90;;;;;;5034547;28;20437;-82
2022/08/12 02:33:01;;;;;;;2.23;2.03;;;15.60;92.80;;;;;;5034620;28;20457;-82
2022/08/12 02:35:29;;;;;;;1.40;1.40;;;15.50;93.00;;;;;;5029552;28;20408;-82
2022/08/12 02:37:57;;;;;;;1.73;1.53;;;15.50;93.10;;;;;;5026330;28;20441;-82
2022/08/12 02:40:25;;;;;;;1.50;1.40;;;15.50;93.10;;;;;;5028006;28;20435;-83
2022/08/12 02:43:11;;;;;;;1.50;1.40;;;15.50;93.10;;;;;;5027701;28;20457;-82
2022/08/12 02:45:46;;;;;;;1.50;1.50;;;15.40;93.30;;;;;;5023161;28;20783;-83
2022/08/12 02:48:32;;;;;;;3.40;1.70;;;15.40;93.30;;;;;;5019530;28;20445;-82
2022/08/12 02:51:04;;;;;;;2.03;1.90;;;15.30;93.40;;;;;;5043636;28;20818;-82
2022/08/12 02:53:33;;;;;;;1.57;1.47;;;15.30;93.40;;;;;;5014980;28;20462;-82
2022/08/12 02:56:01;;;;;;;2.33;2.03;;;15.30;93.70;;;;;;5031235;28;20469;-83
2022/08/12 02:58:30;;;;;;;2.70;2.00;;;15.30;93.50;;;;;;5014495;28;20992;-82
2022/08/12 03:00:58;;;;;;;2.67;1.87;;;15.20;93.60;;;;;;5039531;28;20510;-82
2022/08/12 03:03:28;;;;;;;1.67;1.57;;;15.20;93.50;;;;;;5014782;28;20823;-82
2022/08/12 03:05:59;;;;;;;3.50;1.80;;;15.20;93.60;;;;;;5020239;28;20454;-82
2022/08/12 03:08:33;;;;;;;1.73;1.67;;;15.20;93.80;;;;;;5031324;28;20503;-82
2022/08/12 03:11:09;;;;;;;1.50;1.40;;;15.20;94.00;;;;;;5046779;28;20989;-82
2022/08/12 03:13:38;;;;;;;1.63;1.53;;;15.10;94.00;;;;;;5050989;28;20433;-82
2022/08/12 03:16:05;;;;;;;2.40;2.03;;;15.10;94.10;;;;;;5050857;28;20426;-82
2022/08/12 03:18:32;;;;;;;1.90;1.80;;;15.10;94.10;;;;;;5050677;28;20434;-82
2022/08/12 03:20:59;;;;;;;1.93;1.80;;;15.00;94.40;;;;;;5050509;28;20418;-82
2022/08/12 03:23:25;;;;;;;1.67;1.57;;;15.00;94.40;;;;;;5049969;28;20477;-82
2022/08/12 03:25:55;;;;;;;1.87;1.73;;;15.00;94.50;;;;;;5050535;28;20428;-82
2022/08/12 03:31:08;;;;;;;1.80;1.70;;;15.00;94.60;;;;;;5052696;28;20788;-82
2022/08/12 03:33:38;;;;;;;1.40;1.30;;;14.90;94.60;;;;;;5050520;28;20418;-81
2022/08/12 03:36:08;;;;;;;5.30;2.50;;;14.90;94.70;;;;;;5037487;28;20465;-82
2022/08/12 03:38:39;;;;;;;2.73;1.90;;;14.90;94.70;;;;;;5061427;28;20438;-82
2022/08/12 03:41:34;;;;;;;1.90;1.67;;;14.90;94.70;;;;;;5052018;28;20411;-83
2022/08/12 04:00:57;;;;;;;3.37;2.63;;;14.80;95.20;;;;;;5051504;28;20421;-82
2022/08/12 04:06:08;;;;;;;1.90;1.80;;;14.80;95.40;;;;;;5051080;28;20475;-82
2022/08/12 04:08:34;;;;;;;3.63;2.57;;;14.70;95.40;;;;;;5037215;28;20438;-82
2022/08/12 04:13:47;;;;;;;2.40;2.07;;;14.70;95.40;;;;;;5051131;28;20473;-82
2022/08/12 04:16:14;;;;;;;2.93;1.97;;;14.70;95.40;;;;;;5049248;28;20989;-82
2022/08/12 04:18:41;;;;;;;3.67;2.70;;;14.70;95.40;;;;;;5040049;28;20813;-83
2022/08/12 04:21:10;;;;;;;1.90;1.80;;;14.70;95.50;;;;;;5046723;28;20472;-82
2022/08/12 04:23:37;;;;;;;1.40;1.30;;;14.70;95.60;;;;;;5051313;28;20418;-83
2022/08/12 04:26:04;;;;;;;2.43;2.00;;;14.70;95.50;;;;;;5063606;28;20419;-82
2022/08/12 04:28:30;;;;;;;3.00;1.70;;;14.60;95.40;;;;;;5049739;28;20450;-82
2022/08/12 04:30:56;;;;;;;1.57;1.50;;;14.70;95.30;;;;;;5051635;28;20496;-82
2022/08/12 04:33:22;;;;;;;1.83;1.50;;;14.70;95.20;;;;;;5049629;28;20191;-82
2022/08/12 04:35:48;;;;;;;2.80;1.97;;;14.70;95.20;;;;;;5053171;28;20707;-82
2022/08/12 04:38:15;;;;;;;1.70;1.60;;;14.80;95.20;;;;;;5053965;28;21060;-82
2022/08/12 04:40:41;;;;;;;1.43;1.33;;;14.80;95.10;;;;;;5053631;28;20253;-82
2022/08/12 04:43:06;;;;;;;1.30;1.20;;;14.80;95.20;;;;;;5054212;28;20410;-82
2022/08/12 04:45:36;;;;;;;2.03;1.50;;;14.90;95.20;;;;;;5053740;28;20660;-82
2022/08/12 04:48:02;;;;;;;3.93;1.93;;;14.90;95.40;;;;;;5053580;28;20594;-82
2022/08/12 04:50:28;;;;;;;1.80;1.70;;;14.90;95.50;;;;;;5053468;28;20434;-82
2022/08/12 04:52:55;;;;;;;1.67;1.67;;;15.00;95.40;;;;;;5053774;28;20207;-83
2022/08/12 04:55:22;;;;;;;2.90;1.67;;;15.00;95.60;;;;;;5053244;28;20448;-82
2022/08/12 04:57:48;;;;;;;2.30;2.10;;;15.00;95.60;;;;;;5053310;28;20411;-82
2022/08/12 05:00:15;;;;;;;2.00;1.53;;;15.10;95.80;;;;;;5053109;28;20858;-82
2022/08/12 05:02:41;;;;;;;2.37;1.80;;;15.00;95.80;;;;;;5054795;28;20923;-82
2022/08/12 05:05:11;;;;;;;2.20;2.00;;;15.10;95.90;;;;;;5053653;28;20458;-82
2022/08/12 05:07:36;;;;;;;3.50;2.40;;;15.10;95.90;;;;;;5053570;28;20430;-83
2022/08/12 05:10:11;;;;;;;3.93;1.70;;;15.10;95.90;;;;;;5081997;22;20511;-88
2022/08/12 05:12:51;;;;;;;2.53;2.40;;;15.20;96.00;;;;;;5093293;28;20205;-88
2022/08/12 05:15:30;;;;;;;7.23;2.30;;;15.20;95.90;;;;;;5077522;28;20420;-89
2022/08/12 05:18:31;;;;;;;1.80;1.73;;;15.30;95.70;;;;;;5077312;28;20416;-88
2022/08/12 05:20:57;;;;;;;1.80;1.70;;;15.30;96.00;;;;;;5076645;22;20488;-87
2022/08/12 05:23:23;;;;;;;2.57;2.37;;;15.30;96.10;;;;;;5062882;28;20953;-87
2022/08/12 05:25:50;;;;;;;18.40;1.87;;;15.40;95.90;;;;;;5065324;28;20420;-87
2022/08/12 05:28:18;;;;;;;3.03;2.60;;;15.40;96.00;;;;;;5075905;28;20224;-87
2022/08/12 05:30:45;;;;;;;5.03;2.33;;;15.50;96.10;;;;;;5057260;28;20410;-87
2022/08/12 05:33:12;;;;;;;4.10;1.50;;;15.50;96.20;;;;;;5063871;28;20742;-86
2022/08/12 05:35:40;;;;;;;1.67;1.50;;;15.60;96.00;;;;;;5042637;28;20422;-86
2022/08/12 05:40:51;;;;;;;3.13;1.47;;;15.60;96.30;;;;;;5063108;28;20711;-87
2022/08/12 05:43:17;;;;;;;1.60;1.17;;;15.70;96.30;;;;;;5056482;28;20433;-87
2022/08/12 05:45:44;;;;;;;2.37;1.90;;;15.70;96.10;;;;;;5043542;28;20202;-87
2022/08/12 05:48:09;;;;;;;5.03;2.10;;;15.80;96.10;;;;;;5057016;28;20482;-86
2022/08/12 05:50:35;;;;;;;4.90;2.40;;;15.90;96.30;;;;;;5057190;28;20425;-86
2022/08/12 05:53:01;;;;;;;5.27;2.53;;;15.90;96.00;;;;;;5043708;28;20206;-87
2022/08/12 05:55:27;;;;;;;1.33;1.23;;;15.90;95.90;;;;;;5073351;28;20428;-87
2022/08/12 05:57:54;;;;;;;2.50;1.77;;;16.00;95.90;;;;;;5057205;28;20179;-87
2022/08/12 06:00:24;;;;;;;3.43;2.00;;;16.00;95.70;;;;;;5056376;28;20242;-87
2022/08/12 06:02:59;;;;;;;2.53;2.00;;;16.10;95.60;;;;;;5040272;28;20520;-87
2022/08/12 06:05:25;;;;;;;2.17;2.07;;;16.20;95.50;;;;;;5056286;28;20425;-87
2022/08/12 06:07:56;;;;;;;2.30;1.70;;;16.30;95.30;;;;;;5038782;28;20932;-86
2022/08/12 06:10:22;;;;;;;1.67;1.60;;;16.30;95.30;;;;;;5049572;28;20643;-87
2022/08/12 06:12:49;;;;;;;3.23;1.80;;;16.40;95.10;;;;;;5056650;28;21027;-87
2022/08/12 06:15:19;;;;;;;2.47;2.00;;;16.50;95.10;;;;;;5056653;28;20424;-86
2022/08/12 06:17:45;;;;;;;2.37;1.83;;;16.60;94.90;;;;;;5050176;28;20418;-87
2022/08/12 06:20:14;;;;;;;1.77;1.50;;;16.70;94.70;;;;;;5040368;28;21173;-86
2022/08/12 06:22:39;;;;;;;2.03;1.53;;;16.90;94.30;;;;;;5056606;28;20421;-86
2022/08/12 06:25:06;;;;;;;1.87;1.80;;;17.00;94.00;;;;;;5057232;28;20505;-86
2022/08/12 06:27:33;;;;;;;1.90;1.60;;;17.20;93.30;;;;;;5056652;28;20195;-86
2022/08/12 06:30:01;;;;;;;2.80;1.33;;;17.40;92.90;;;;;;5056181;28;20429;-86
2022/08/12 06:32:27;;;;;;;1.90;1.80;;;17.60;92.10;;;;;;5056311;28;20747;-86
2022/08/12 06:34:55;;;;;;;1.87;1.60;;;17.80;91.80;;;;;;5085240;28;20493;-87
2022/08/12 06:37:21;;;;;;;1.97;1.57;;;18.00;91.60;;;;;;5055615;28;20424;-86
2022/08/12 06:39:47;;;;;;;7.70;2.17;;;18.20;90.90;;;;;;5074357;28;20425;-86
2022/08/12 06:44:56;;;;;;;6.03;1.90;;;18.50;89.10;;;;;;5054820;28;20175;-86
2022/08/12 06:47:22;;;;;;;1.87;1.60;;;18.70;89.00;;;;;;5036465;28;20415;-87
2022/08/12 06:49:48;;;;;;;4.20;2.03;;;18.80;88.90;;;;;;5042835;28;20220;-86
2022/08/12 06:52:16;;;;;;;1.87;1.40;;;18.90;89.20;;;;;;5055667;28;20195;-86
2022/08/12 06:54:44;;;;;;;2.27;2.07;;;19.00;89.10;;;;;;5055959;28;20830;-86
2022/08/12 06:57:10;;;;;;;2.37;1.90;;;19.20;88.10;;;;;;5055322;28;20425;-85
2022/08/12 06:59:39;;;;;;;2.07;1.93;;;19.30;87.20;;;;;;5055819;28;20475;-86
2022/08/12 07:02:05;;;;;;;1.33;1.27;;;19.40;86.70;;;;;;5055665;28;20175;-87
2022/08/12 07:04:34;;;;;;;2.47;1.70;;;19.50;86.30;;;;;;5055435;28;20418;-86
2022/08/12 07:06:59;;;;;;;1.50;1.43;;;19.60;86.30;;;;;;5055449;28;20273;-86
2022/08/12 07:09:26;;;;;;;5.43;1.30;;;19.80;85.80;;;;;;5055641;28;20468;-87
2022/08/12 07:11:52;;;;;;;3.73;1.50;;;19.80;85.50;;;;;;5055677;28;20175;-86
2022/08/12 07:14:17;;;;;;;2.83;1.67;;;20.00;85.80;;;;;;5055628;28;20466;-86
2022/08/12 07:16:52;;;;;;;1.90;1.73;;;20.00;85.50;;;;;;5056127;28;20187;-86
2022/08/12 07:19:19;;;;;;;2.57;1.70;;;20.10;85.60;;;;;;5056329;28;20577;-86
2022/08/12 07:21:46;;;;;;;2.13;1.57;;;20.20;85.60;;;;;;5055661;28;20464;-86
2022/08/12 07:24:13;;;;;;;5.10;1.77;;;20.40;85.10;;;;;;5055865;28;20501;-86
2022/08/12 07:26:40;;;;;;;5.70;2.47;;;20.40;84.90;;;;;;5056237;28;20418;-86
2022/08/12 07:29:09;;;;;;;1.43;1.33;;;20.50;84.90;;;;;;5055493;28;20436;-86
2022/08/12 07:31:38;;;;;;;1.77;1.50;;;20.60;84.70;;;;;;5055289;28;20437;-86
2022/08/12 07:34:05;;;;;;;1.50;1.40;;;20.70;84.40;;;;;;5044336;28;20509;-86
2022/08/12 07:36:32;;;;;;;2.70;1.50;;;20.80;84.80;;;;;;5035409;28;20611;-86
2022/08/12 07:38:59;;;;;;;1.53;1.37;;;20.90;84.30;;;;;;5035573;28;20800;-86
2022/08/12 07:41:28;;;;;;;2.50;1.80;;;21.10;84.00;;;;;;5035525;28;20411;-86
2022/08/12 07:44:00;;;;;;;1.57;1.47;;;21.20;83.50;;;;;;5064921;28;20425;-86
2022/08/12 07:46:30;;;;;;;4.90;1.87;;;21.30;83.00;;;;;;5055003;28;20821;-87
2022/08/12 07:48:59;;;;;;;1.80;1.20;;;21.40;83.00;;;;;;5055317;28;20468;-86
2022/08/12 07:51:25;;;;;;;1.00;1.00;;;21.50;82.70;;;;;;5047420;28;20472;-86
2022/08/12 07:53:53;;;;;;;1.30;1.30;;;21.70;82.50;;;;;;5049269;28;20453;-87
2022/08/12 07:56:18;;;;;;;1.67;1.20;;;21.90;81.90;;;;;;5054839;28;20436;-86
2022/08/12 07:58:44;;;;;;;1.73;1.20;;;22.00;81.30;;;;;;5054868;28;20441;-86
2022/08/12 08:01:14;;;;;;;1.77;1.10;;;22.10;80.40;;;;;;5055208;28;20183;-87
2022/08/12 08:04:54;;;;;;;1.80;1.63;;;22.20;80.30;;;;;;5055030;28;20182;-86
2022/08/12 08:06:30;;;;;;;1.20;0.93;;;22.40;79.90;;;;;;5072965;28;20409;-86
2022/08/12 08:09:01;;;;;;;1.10;1.10;;;22.50;79.30;;;;;;5054228;28;20434;-86
2022/08/12 08:14:12;;;;;;;4.63;1.33;;;22.80;78.00;;;;;;5061226;28;20444;-87
2022/08/12 08:16:40;;;;;;;1.20;1.10;;;23.00;78.50;;;;;;5054911;28;20405;-85
2022/08/12 08:19:08;;;;;;;1.60;1.50;;;23.10;77.30;;;;;;5054489;28;20209;-87
2022/08/12 08:21:34;;;;;;;1.30;1.27;;;23.20;76.50;;;;;;5051765;28;20453;-86
2022/08/12 08:24:15;;;;;;;1.20;1.10;;;23.30;75.80;;;;;;5051974;28;20426;-87
2022/08/12 08:26:46;;;;;;;1.60;1.50;;;23.40;76.10;;;;;;5051285;28;20818;-86
2022/08/12 08:29:16;;;;;;;1.20;1.10;;;23.50;75.30;;;;;;5053559;28;20438;-86
2022/08/12 08:31:44;;;;;;;1.37;1.30;;;23.60;74.60;;;;;;5054370;28;20497;-86
2022/08/12 08:34:09;;;;;;;1.10;1.00;;;23.70;74.00;;;;;;5054422;28;20436;-86
2022/08/12 08:36:36;;;;;;;1.13;1.10;;;23.80;73.40;;;;;;5072683;28;20421;-87
2022/08/12 08:39:03;;;;;;;1.20;1.10;;;23.90;73.90;;;;;;5072614;28;20203;-87
2022/08/12 08:44:13;;;;;;;1.20;1.10;;;24.10;72.60;;;;;;5074690;28;20433;-79
2022/08/12 08:46:41;;;;;;;1.10;1.00;;;24.10;72.90;;;;;;5073770;28;20421;-80
2022/08/12 08:49:07;;;;;;;1.60;1.50;;;24.20;73.50;;;;;;5061997;28;20207;-80
2022/08/12 08:51:33;;;;;;;1.50;1.40;;;24.20;72.60;;;;;;5055784;28;20425;-79
2022/08/12 08:53:58;;;;;;;1.20;1.10;;;24.30;72.90;;;;;;5065086;28;20454;-79
2022/08/12 08:56:25;;;;;;;1.50;1.07;;;24.40;72.50;;;;;;5068597;28;20979;-78
2022/08/12 08:58:51;;;;;;;1.43;1.33;;;24.40;72.20;;;;;;5045197;28;20752;-82
2022/08/12 09:01:20;;;;;;;1.00;1.00;;;24.50;73.00;;;;;;5046850;28;20443;-79
2022/08/12 09:03:47;;;;;;;1.63;1.53;;;24.60;72.80;;;;;;5044263;28;20189;-79
2022/08/12 09:06:13;;;;;;;1.40;1.30;;;24.70;73.90;;;;;;5071872;28;20464;-79
2022/08/12 09:08:43;;;;;;;1.30;1.20;;;24.80;73.60;;;;;;5053245;28;20456;-78
2022/08/12 09:13:53;;;;;;;1.30;1.20;;;25.00;73.50;;;;;;5073361;28;20502;-80
2022/08/12 09:16:19;;;;;;;1.40;1.03;;;25.10;73.50;;;;;;5077246;28;20809;-80
2022/08/12 09:18:45;;;;;;;1.43;1.37;;;25.20;73.80;;;;;;5073257;28;20271;-79
2022/08/12 09:21:12;;;;;;;1.10;1.00;;;25.30;73.90;;;;;;5052102;28;20226;-81
2022/08/12 09:23:38;;;;;;;2.00;1.87;;;25.40;73.30;;;;;;5051554;28;20515;-81
2022/08/12 09:26:04;;;;;;;1.57;1.30;;;25.50;73.00;;;;;;5047959;28;20417;-79
2022/08/12 09:28:31;;;;;;;1.20;1.10;;;25.50;72.60;;;;;;5058683;28;20199;-81
2022/08/12 09:30:58;;;;;;;1.20;1.10;;;25.50;72.20;;;;;;5047179;28;20171;-81
2022/08/12 09:33:33;;;;;;;1.10;1.00;;;25.50;72.90;;;;;;5077655;28;20456;-82
2022/08/12 09:36:00;;;;;;;1.80;1.20;;;25.60;72.30;;;;;;5039346;28;20410;-81
2022/08/12 09:38:28;;;;;;;0.93;0.87;;;25.60;72.30;;;;;;5071986;28;20977;-80
2022/08/12 09:40:53;;;;;;;1.63;1.10;;;25.70;73.00;;;;;;5060813;28;20421;-81
2022/08/12 09:46:03;;;;;;;1.30;1.20;;;25.90;71.90;;;;;;5072282;28;20222;-80
2022/08/12 09:48:29;;;;;;;1.53;1.43;;;26.00;71.70;;;;;;5040233;28;20438;-81
2022/08/12 09:50:55;;;;;;;1.00;0.90;;;26.00;71.80;;;;;;5057226;28;20183;-80
2022/08/12 09:53:23;;;;;;;1.20;1.10;;;26.10;71.90;;;;;;5059148;28;20220;-80
2022/08/12 09:55:54;;;;;;;2.37;1.63;;;26.10;71.10;;;;;;5059648;28;20194;-80
2022/08/12 09:58:27;;;;;;;1.10;1.00;;;26.10;70.70;;;;;;5039949;28;20429;-83
2022/08/12 10:00:55;;;;;;;1.50;1.30;;;26.20;70.70;;;;;;5050696;28;20414;-83
2022/08/12 10:03:25;;;;;;;1.47;1.20;;;26.30;70.30;;;;;;5065591;28;20422;-83
2022/08/12 10:05:51;;;;;;;1.00;0.90;;;26.30;71.10;;;;;;5054152;28;20811;-83
2022/08/12 10:08:17;;;;;;;1.30;1.20;;;26.30;70.30;;;;;;5053594;28;20445;-80
2022/08/12 10:13:41;;;;;;;2.27;2.10;;;26.40;70.40;;;;;;5075486;28;20533;-82
2022/08/12 10:16:19;;;;;;;2.00;1.77;;;26.40;70.30;;;;;;5067906;28;20463;-82
2022/08/12 10:18:54;;;;;;;1.33;1.23;;;26.50;70.50;;;;;;5078635;28;20444;-82
2022/08/12 10:21:26;;;;;;;1.20;1.10;;;26.60;71.00;;;;;;5044578;28;20458;-80
2022/08/12 10:23:53;;;;;;;1.13;1.13;;;26.70;69.90;;;;;;5060186;28;20425;-83
2022/08/12 10:31:52;;;;;;;1.20;1.10;;;26.90;70.10;;;;;;5076504;28;20444;-81
2022/08/12 10:34:22;;;;;;;1.00;0.90;;;27.00;70.40;;;;;;5062144;28;20887;-84
2022/08/12 10:36:49;;;;;;;1.10;1.00;;;27.10;69.90;;;;;;5055411;28;20481;-81
2022/08/12 10:39:17;;;;;;;1.00;0.87;;;27.20;68.70;;;;;;5046909;28;20441;-82
2022/08/12 10:44:30;;;;;;;1.00;1.00;;;27.30;69.30;;;;;;5074624;28;20436;-81
2022/08/12 10:46:59;;;;;;;1.37;1.20;;;27.40;69.10;;;;;;5055211;28;20406;-81
2022/08/12 10:49:36;;;;;;;1.27;1.10;;;27.40;68.00;;;;;;5055999;28;21122;-81
2022/08/12 10:52:03;;;;;;;2.30;1.63;;;27.50;68.90;;;;;;5056789;28;20826;-81
2022/08/12 10:54:29;;;;;;;1.23;1.13;;;27.60;68.90;;;;;;5056417;28;20447;-79
2022/08/12 10:56:56;;;;;;;1.00;0.90;;;27.60;67.70;;;;;;5056271;28;20933;-80
2022/08/12 10:59:23;;;;;;;1.20;1.20;;;27.70;68.20;;;;;;5054855;28;20437;-81
2022/08/12 11:01:51;;;;;;;1.07;1.00;;;27.80;68.30;;;;;;5055739;28;20421;-82
2022/08/12 11:04:16;;;;;;;1.50;1.13;;;27.90;68.90;;;;;;5051259;28;20421;-81
2022/08/12 11:06:46;;;;;;;1.27;1.20;;;28.00;68.80;;;;;;5049047;28;20964;-81
2022/08/12 11:09:23;;;;;;;1.63;1.60;;;28.10;68.00;;;;;;5054793;28;20289;-81
2022/08/12 11:11:49;;;;;;;1.27;1.10;;;28.20;67.50;;;;;;5054655;28;20467;-82
2022/08/12 11:16:46;;;;;;;1.07;0.97;;;28.30;67.00;;;;;;5078143;28;20773;-81
2022/08/12 11:19:12;;;;;;;1.87;1.43;;;28.40;65.80;;;;;;5080703;28;20436;-80
2022/08/12 11:21:38;;;;;;;1.20;1.10;;;28.30;67.00;;;;;;5063463;28;20194;-80
2022/08/12 11:24:05;;;;;;;1.10;1.00;;;28.40;66.80;;;;;;5064112;28;20210;-80
2022/08/12 11:26:31;;;;;;;1.27;1.20;;;28.40;67.10;;;;;;5062326;28;20453;-80
2022/08/12 11:28:57;;;;;;;1.93;1.27;;;28.50;66.10;;;;;;5051481;28;20533;-80
2022/08/12 11:31:23;;;;;;;1.50;1.40;;;28.50;67.00;;;;;;5050321;28;20453;-80
2022/08/12 11:33:49;;;;;;;0.90;0.80;;;28.60;66.50;;;;;;5061330;28;20656;-81
2022/08/12 11:36:16;;;;;;;1.53;1.47;;;28.70;67.00;;;;;;5061928;28;20424;-80
2022/08/12 11:38:42;;;;;;;0.80;0.80;;;28.90;67.30;;;;;;5059977;28;20285;-80
2022/08/12 11:41:07;;;;;;;1.20;1.20;;;29.00;66.30;;;;;;5058226;28;20417;-80
2022/08/12 11:43:33;;;;;;;1.53;1.50;;;29.00;64.70;;;;;;5058591;28;20648;-81
2022/08/12 11:45:59;;;;;;;1.07;1.00;;;28.80;65.10;;;;;;5060185;28;20179;-81
2022/08/12 11:48:25;;;;;;;2.70;1.33;;;28.60;65.30;;;;;;5077210;28;20207;-80
2022/08/12 11:50:51;;;;;;;3.23;1.30;;;28.50;64.50;;;;;;5063480;28;20181;-79
2022/08/12 11:53:16;;;;;;;2.03;1.00;;;28.50;65.20;;;;;;5063566;28;20207;-80
2022/08/12 11:55:42;;;;;;;1.00;0.90;;;28.40;65.00;;;;;;5059873;28;20183;-82
2022/08/12 11:58:08;;;;;;;1.50;1.47;;;28.30;64.30;;;;;;5060645;28;20175;-79
2022/08/12 12:00:33;;;;;;;1.47;1.00;;;28.20;64.70;;;;;;5060111;28;20229;-80
2022/08/12 12:02:59;;;;;;;1.10;1.00;;;28.30;65.00;;;;;;5061817;28;20625;-79
2022/08/12 12:05:24;;;;;;;1.10;0.97;;;28.50;65.60;;;;;;5061860;28;20211;-78
2022/08/12 12:07:50;;;;;;;1.17;1.03;;;28.60;65.30;;;;;;5062984;28;20179;-79
2022/08/12 12:10:18;;;;;;;0.90;0.87;;;28.70;64.70;;;;;;5061402;28;20297;-79
2022/08/12 12:12:45;;;;;;;1.00;0.90;;;28.90;63.40;;;;;;5062766;28;20550;-78
2022/08/12 12:15:11;;;;;;;0.87;0.80;;;29.00;63.40;;;;;;5069014;28;20472;-78
2022/08/12 12:17:38;;;;;;;1.20;1.10;;;28.90;62.90;;;;;;5081862;28;20420;-78
2022/08/12 12:20:08;;;;;;;1.10;1.00;;;28.90;63.80;;;;;;5080739;28;20496;-78
2022/08/12 12:22:34;;;;;;;1.00;0.90;;;28.80;64.20;;;;;;5083472;28;20450;-79
2022/08/12 12:25:00;;;;;;;1.40;1.03;;;28.80;64.80;;;;;;5082325;28;20420;-79
2022/08/12 12:27:26;;;;;;;1.10;1.00;;;28.90;65.90;;;;;;5099257;28;20427;-78
2022/08/12 12:29:51;;;;;;;1.47;1.27;;;29.00;65.20;;;;;;5078457;28;20218;-78
2022/08/12 12:32:18;;;;;;;1.53;1.50;;;29.20;63.50;;;;;;5078090;28;20194;-79
2022/08/12 12:34:43;;;;;;;0.97;0.97;;;29.30;63.50;;;;;;5082012;28;20182;-81
2022/08/12 12:37:12;;;;;;;1.03;0.93;;;29.40;64.10;;;;;;5082636;28;20456;-79
2022/08/12 12:39:42;;;;;;;0.90;0.90;;;29.40;64.40;;;;;;5082997;28;20194;-79
2022/08/12 12:42:07;;;;;;;1.10;1.00;;;29.30;63.70;;;;;;5082133;28;20420;-79
2022/08/12 12:44:33;;;;;;;1.30;1.00;;;29.10;64.80;;;;;;5068799;28;20432;-78
2022/08/12 12:46:59;;;;;;;1.63;1.53;;;29.00;65.10;;;;;;5075560;28;20191;-78
2022/08/12 12:49:24;;;;;;;1.23;1.20;;;28.90;65.10;;;;;;5085864;28;20269;-80
2022/08/12 12:51:50;;;;;;;3.37;1.87;;;28.90;65.40;;;;;;5084920;28;20178;-79
2022/08/12 12:54:16;;;;;;;2.13;1.13;;;28.80;65.10;;;;;;5082285;28;20175;-78
2022/08/12 12:56:43;;;;;;;1.47;1.37;;;28.60;65.90;;;;;;5080793;28;20202;-80
2022/08/12 12:59:09;;;;;;;0.90;0.90;;;28.50;65.20;;;;;;5094735;28;20186;-81
2022/08/12 13:01:37;;;;;;;1.67;1.43;;;28.30;64.60;;;;;;5088127;28;20746;-81
2022/08/12 13:04:06;;;;;;;1.57;1.20;;;28.00;65.70;;;;;;5088933;28;20945;-80
2022/08/12 13:06:32;;;;;;;2.20;1.27;;;27.90;65.40;;;;;;5087190;28;20428;-80
2022/08/12 13:09:00;;;;;;;7.40;1.57;;;27.80;65.50;;;;;;5079922;28;20444;-80
2022/08/12 13:11:28;;;;;;;1.43;1.40;;;27.70;66.10;;;;;;5073116;28;20232;-80
2022/08/12 13:13:55;;;;;;;1.60;1.50;;;27.70;67.10;;;;;;5081296;28;20460;-80
2022/08/12 13:16:21;;;;;;;4.40;1.57;;;27.70;66.80;;;;;;5065910;28;21039;-81
2022/08/12 13:18:51;;;;;;;0.90;0.80;;;27.70;66.90;;;;;;5075975;28;20433;-80
2022/08/12 13:21:17;;;;;;;3.03;1.60;;;27.70;66.70;;;;;;5063081;28;20417;-80
2022/08/12 13:23:44;;;;;;;2.13;1.93;;;27.60;66.50;;;;;;5057316;28;20417;-80
2022/08/12 13:26:11;;;;;;;21.50;1.30;;;27.50;66.80;;;;;;5062592;28;20425;-80
2022/08/12 13:28:37;;;;;;;1.10;1.10;;;27.50;68.20;;;;;;5065219;28;20824;-79
2022/08/12 13:31:03;;;;;;;1.17;1.03;;;27.50;68.00;;;;;;5072449;28;20421;-80
2022/08/12 13:33:29;;;;;;;1.17;1.07;;;27.60;68.10;;;;;;5070908;28;20250;-80
2022/08/12 13:35:59;;;;;;;1.40;1.27;;;27.70;67.50;;;;;;5055369;28;20317;-78
2022/08/12 13:38:41;;;;;;;1.50;1.30;;;28.00;68.40;;;;;;5055848;28;20445;-79
2022/08/12 13:41:31;;;;;;;1.13;1.10;;;28.40;67.70;;;;;;5048606;28;20745;-80
2022/08/12 13:44:02;;;;;;;1.17;1.07;;;28.80;66.70;;;;;;5057360;28;20434;-79
2022/08/12 13:46:28;;;;;;;1.30;1.10;;;28.80;66.10;;;;;;5073427;28;20452;-79
2022/08/12 13:48:55;;;;;;;1.20;1.10;;;28.80;65.80;;;;;;5065017;28;20441;-79
2022/08/12 13:51:21;;;;;;;1.63;1.57;;;28.70;65.50;;;;;;5064645;28;20179;-79
2022/08/12 13:53:47;;;;;;;1.20;1.10;;;28.50;66.70;;;;;;5073567;28;20488;-78
2022/08/12 13:56:13;;;;;;;1.33;1.00;;;28.40;66.90;;;;;;5067327;28;20428;-85
2022/08/12 13:58:43;;;;;;;11.13;1.37;;;28.30;65.80;;;;;;5058401;28;20290;-83
2022/08/12 14:01:09;;;;;;;1.50;1.20;;;28.10;66.30;;;;;;5051652;28;20269;-84
2022/08/12 14:03:36;;;;;;;1.10;1.00;;;28.00;66.20;;;;;;5064417;28;20946;-83
2022/08/12 14:06:03;;;;;;;1.40;1.13;;;27.90;67.10;;;;;;5057438;28;20183;-83
2022/08/12 14:08:29;;;;;;;1.37;1.27;;;28.00;67.40;;;;;;5056230;28;20430;-84
2022/08/12 14:10:55;;;;;;;2.40;1.70;;;28.30;66.90;;;;;;5056230;28;20437;-84
2022/08/12 14:13:23;;;;;;;3.40;1.80;;;28.40;67.30;;;;;;5048522;28;20489;-83
2022/08/12 14:15:57;;;;;;;13.33;1.80;;;28.40;67.30;;;;;;5082357;28;20468;-84
2022/08/12 14:18:28;;;;;;;2.30;1.53;;;28.60;66.80;;;;;;5066952;28;20948;-84
2022/08/12 14:21:03;;;;;;;1.80;1.50;;;28.80;66.60;;;;;;5076130;28;20480;-84
2022/08/12 14:23:34;;;;;;;1.30;1.20;;;29.10;66.60;;;;;;5069532;28;20424;-85
2022/08/12 14:26:04;;;;;;;1.57;1.50;;;29.30;65.20;;;;;;5066407;28;20428;-84
2022/08/12 14:28:32;;;;;;;1.33;1.23;;;29.30;65.70;;;;;;5066562;28;20437;-84
2022/08/12 14:30:59;;;;;;;1.50;1.13;;;29.50;64.90;;;;;;5071199;28;20420;-84
2022/08/12 14:33:32;;;;;;;1.10;1.10;;;29.60;65.00;;;;;;5082321;28;20464;-84
2022/08/12 14:35:59;;;;;;;1.33;1.27;;;29.80;65.20;;;;;;5082688;28;21005;-84
2022/08/12 14:38:28;;;;;;;2.80;1.20;;;30.00;64.70;;;;;;5075130;28;20416;-83
2022/08/12 14:40:57;;;;;;;1.47;1.30;;;30.00;64.10;;;;;;5072349;28;20424;-85
2022/08/12 14:43:26;;;;;;;1.20;1.10;;;30.10;63.90;;;;;;5063469;28;20471;-84
2022/08/12 14:45:51;;;;;;;1.13;1.03;;;30.10;63.20;;;;;;5064111;28;20431;-84
2022/08/12 14:48:19;;;;;;;1.80;1.70;;;30.20;64.20;;;;;;5072425;28;20424;-87